LHA8781 TNCM-DNMM
Flight info
| Callsign | LHA8781 |
|---|---|
| Flight time | N/A |
| Altitude | 33000 |
| Route | MODOR2 MNOLO DCT GLAAS DCT EGIBO DCT 1640N DCT OPADO DCT AMDOL/N0489F350 DCT BULVO DCT MEKIV UG853 LIPOG DCT LGI UV207 AD UB600 ACC UL433 TYE TYE1N |
| Aircraft | B77W/H-SDE1E2FGIRWYZ/S |
Departure
| Time | N/A |
|---|---|
| Airport | Princess Juliana International Airport (TNCM) |
Arrival
| Time | 2026-05-05 08:39 |
|---|---|
| Airport | Murtala Muhammed International Airport (DNMM) |
| Time | Latitude | Longitude | Altitude | Speed | Heading |
|---|---|---|---|---|---|
| 2026-05-05 08:17 | 6.29799 | 1.98552 | 26580 ft | 422 kts | 80° |
| 2026-05-05 08:17 | 6.30257 | 2.01460 | 26108 ft | 419 kts | 80° |
| 2026-05-05 08:17 | 6.30711 | 2.04346 | 25659 ft | 417 kts | 80° |
| 2026-05-05 08:17 | 6.31163 | 2.07214 | 25192 ft | 415 kts | 80° |
| 2026-05-05 08:18 | 6.31613 | 2.10072 | 24737 ft | 413 kts | 80° |
| 2026-05-05 08:18 | 6.32059 | 2.12912 | 24288 ft | 411 kts | 80° |
| 2026-05-05 08:18 | 6.32504 | 2.15741 | 23829 ft | 409 kts | 80° |
| 2026-05-05 08:18 | 6.32947 | 2.18561 | 23363 ft | 408 kts | 80° |
| 2026-05-05 08:19 | 6.33388 | 2.21367 | 22860 ft | 405 kts | 80° |
| 2026-05-05 08:19 | 6.33826 | 2.24152 | 22393 ft | 402 kts | 80° |
| 2026-05-05 08:19 | 6.34259 | 2.26913 | 21945 ft | 398 kts | 80° |
| 2026-05-05 08:19 | 6.34683 | 2.29617 | 21505 ft | 395 kts | 80° |
| 2026-05-05 08:20 | 6.35115 | 2.32371 | 21072 ft | 392 kts | 80° |
| 2026-05-05 08:20 | 6.35538 | 2.35067 | 20638 ft | 389 kts | 80° |
| 2026-05-05 08:20 | 6.35970 | 2.37693 | 20190 ft | 382 kts | 76° |
| 2026-05-05 08:20 | 6.36917 | 2.40161 | 19765 ft | 378 kts | 58° |
| 2026-05-05 08:21 | 6.38509 | 2.42232 | 19363 ft | 372 kts | 50° |
| 2026-05-05 08:21 | 6.40186 | 2.44202 | 18933 ft | 370 kts | 50° |
| 2026-05-05 08:21 | 6.41855 | 2.46167 | 18500 ft | 369 kts | 50° |
| 2026-05-05 08:21 | 6.43511 | 2.48126 | 18049 ft | 367 kts | 51° |
| 2026-05-05 08:22 | 6.45150 | 2.50079 | 17595 ft | 364 kts | 51° |
| 2026-05-05 08:22 | 6.46775 | 2.52022 | 17157 ft | 361 kts | 51° |
| 2026-05-05 08:22 | 6.48381 | 2.53948 | 16739 ft | 358 kts | 52° |
| 2026-05-05 08:22 | 6.49969 | 2.55858 | 16323 ft | 354 kts | 52° |
| 2026-05-05 08:23 | 6.51540 | 2.57748 | 15916 ft | 351 kts | 52° |
| 2026-05-05 08:23 | 6.53097 | 2.59623 | 15516 ft | 348 kts | 52° |
| 2026-05-05 08:23 | 6.54641 | 2.61482 | 15107 ft | 345 kts | 52° |
| 2026-05-05 08:23 | 6.56172 | 2.63327 | 14708 ft | 342 kts | 52° |
| 2026-05-05 08:24 | 6.57690 | 2.65155 | 14319 ft | 339 kts | 53° |
| 2026-05-05 08:24 | 6.59195 | 2.66969 | 13923 ft | 337 kts | 53° |
| 2026-05-05 08:24 | 6.60691 | 2.68772 | 13482 ft | 334 kts | 53° |
| 2026-05-05 08:24 | 6.62173 | 2.70560 | 13080 ft | 331 kts | 53° |
| 2026-05-05 08:25 | 6.63642 | 2.72331 | 12685 ft | 328 kts | 53° |
| 2026-05-05 08:25 | 6.65097 | 2.74085 | 12298 ft | 325 kts | 53° |
| 2026-05-05 08:25 | 6.66537 | 2.75822 | 11921 ft | 322 kts | 52° |
| 2026-05-05 08:25 | 6.67964 | 2.77541 | 11549 ft | 319 kts | 52° |
| 2026-05-05 08:26 | 6.69380 | 2.79247 | 11163 ft | 317 kts | 52° |
| 2026-05-05 08:26 | 6.70636 | 2.81011 | 10787 ft | 307 kts | 66° |
| 2026-05-05 08:26 | 6.71322 | 2.83007 | 10489 ft | 298 kts | 74° |
| 2026-05-05 08:26 | 6.71894 | 2.84976 | 10355 ft | 289 kts | 74° |
| 2026-05-05 08:27 | 6.72451 | 2.86857 | 10214 ft | 280 kts | 73° |
| 2026-05-05 08:27 | 6.73003 | 2.88702 | 10098 ft | 271 kts | 73° |
| 2026-05-05 08:27 | 6.73545 | 2.90508 | 9989 ft | 262 kts | 73° |
| 2026-05-05 08:27 | 6.74069 | 2.92247 | 9712 ft | 259 kts | 73° |
| 2026-05-05 08:28 | 6.74584 | 2.93949 | 9431 ft | 256 kts | 73° |
| 2026-05-05 08:28 | 6.75101 | 2.95656 | 9136 ft | 254 kts | 73° |
| 2026-05-05 08:28 | 6.75614 | 2.97346 | 8838 ft | 251 kts | 73° |
| 2026-05-05 08:28 | 6.76129 | 2.99042 | 8551 ft | 249 kts | 73° |
| 2026-05-05 08:29 | 6.76634 | 3.00705 | 8260 ft | 248 kts | 73° |
| 2026-05-05 08:29 | 6.77128 | 3.02334 | 7981 ft | 246 kts | 73° |
| 2026-05-05 08:29 | 6.77626 | 3.03974 | 7692 ft | 246 kts | 73° |
| 2026-05-05 08:30 | 6.78652 | 3.07351 | 7146 ft | 258 kts | 73° |
| 2026-05-05 08:30 | 6.79178 | 3.09083 | 6833 ft | 260 kts | 73° |
| 2026-05-05 08:30 | 6.79706 | 3.10821 | 6525 ft | 259 kts | 73° |
| 2026-05-05 08:30 | 6.80232 | 3.12554 | 6207 ft | 259 kts | 73° |
| 2026-05-05 08:31 | 6.80758 | 3.14284 | 5902 ft | 258 kts | 73° |
| 2026-05-05 08:31 | 6.81282 | 3.16010 | 5609 ft | 257 kts | 73° |
| 2026-05-05 08:31 | 6.81805 | 3.17729 | 5297 ft | 257 kts | 73° |
| 2026-05-05 08:31 | 6.82290 | 3.19455 | 4979 ft | 254 kts | 81° |
| 2026-05-05 08:32 | 6.82395 | 3.21222 | 4684 ft | 253 kts | 90° |
| 2026-05-05 08:32 | 6.82381 | 3.22979 | 4463 ft | 247 kts | 91° |
| 2026-05-05 08:32 | 6.82379 | 3.24668 | 4380 ft | 236 kts | 90° |
| 2026-05-05 08:32 | 6.82391 | 3.26299 | 4161 ft | 231 kts | 90° |
| 2026-05-05 08:33 | 6.82409 | 3.27904 | 3875 ft | 228 kts | 90° |
| 2026-05-05 08:33 | 6.82153 | 3.29420 | 3588 ft | 216 kts | 120° |
| 2026-05-05 08:33 | 6.81165 | 3.30470 | 3381 ft | 203 kts | 150° |
| 2026-05-05 08:33 | 6.79898 | 3.30974 | 3190 ft | 191 kts | 172° |
| 2026-05-05 08:34 | 6.78608 | 3.31026 | 3101 ft | 184 kts | 180° |
| 2026-05-05 08:34 | 6.77294 | 3.31062 | 3024 ft | 192 kts | 178° |
| 2026-05-05 08:34 | 6.75953 | 3.31098 | 2909 ft | 192 kts | 179° |
| 2026-05-05 08:34 | 6.74626 | 3.31121 | 2790 ft | 191 kts | 180° |
| 2026-05-05 08:35 | 6.73747 | 3.31132 | 2708 ft | 191 kts | 180° |
| 2026-05-05 08:35 | 6.72423 | 3.31147 | 2585 ft | 190 kts | 179° |
| 2026-05-05 08:35 | 6.71101 | 3.31164 | 2420 ft | 189 kts | 179° |
| 2026-05-05 08:35 | 6.69798 | 3.31179 | 2179 ft | 182 kts | 180° |
| 2026-05-05 08:36 | 6.68579 | 3.31195 | 1958 ft | 169 kts | 179° |
| 2026-05-05 08:36 | 6.67447 | 3.31208 | 1719 ft | 158 kts | 180° |
| 2026-05-05 08:36 | 6.66355 | 3.31222 | 1560 ft | 156 kts | 180° |
| 2026-05-05 08:36 | 6.65270 | 3.31235 | 1348 ft | 157 kts | 180° |
| 2026-05-05 08:37 | 6.64202 | 3.31247 | 1139 ft | 153 kts | 180° |
| 2026-05-05 08:37 | 6.63144 | 3.31261 | 964 ft | 149 kts | 179° |
| 2026-05-05 08:37 | 6.62090 | 3.31273 | 748 ft | 154 kts | 180° |
| 2026-05-05 08:37 | 6.60993 | 3.31286 | 562 ft | 161 kts | 179° |
| 2026-05-05 08:38 | 6.59862 | 3.31299 | 364 ft | 165 kts | 179° |
| 2026-05-05 08:38 | 6.58718 | 3.31317 | 109 ft | 164 kts | 179° |
| 2026-05-05 08:38 | 6.57648 | 3.31328 | 61 ft | 136 kts | 179° |
| 2026-05-05 08:38 | 6.56890 | 3.31337 | 66 ft | 82 kts | 179° |
| 2026-05-05 08:39 | 6.56570 | 3.31369 | 66 ft | 30 kts | 161° |
| 2026-05-05 08:39 | 6.56424 | 3.31449 | 62 ft | 15 kts | 138° |
| 2026-05-05 08:39 | 6.56423 | 3.31529 | 64 ft | 11 kts | 44° |
| 2026-05-05 08:39 | 6.56488 | 3.31546 | 68 ft | 9 kts | 0° |
| 2026-05-05 08:40 | 6.56559 | 3.31545 | 74 ft | 12 kts | 359° |
| 2026-05-05 08:40 | 6.56654 | 3.31544 | 71 ft | 15 kts | 359° |
| 2026-05-05 08:40 | 6.56772 | 3.31542 | 67 ft | 18 kts | 359° |
| 2026-05-05 08:40 | 6.56911 | 3.31540 | 68 ft | 21 kts | 359° |
| 2026-05-05 08:41 | 6.57055 | 3.31539 | 72 ft | 21 kts | 359° |
| 2026-05-05 08:41 | 6.57205 | 3.31537 | 68 ft | 22 kts | 359° |
| 2026-05-05 08:41 | 6.57362 | 3.31535 | 65 ft | 23 kts | 359° |
| 2026-05-05 08:41 | 6.57524 | 3.31532 | 55 ft | 24 kts | 359° |
| 2026-05-05 08:42 | 6.57688 | 3.31531 | 60 ft | 24 kts | 359° |
| 2026-05-05 08:42 | 6.57852 | 3.31529 | 61 ft | 24 kts | 359° |
| 2026-05-05 08:42 | 6.57994 | 3.31527 | 63 ft | 15 kts | 1° |
| 2026-05-05 08:42 | 6.58059 | 3.31578 | 59 ft | 13 kts | 66° |
| 2026-05-05 08:43 | 6.58093 | 3.31660 | 60 ft | 13 kts | 66° |
| 2026-05-05 08:43 | 6.58128 | 3.31741 | 66 ft | 13 kts | 66° |
| 2026-05-05 08:43 | 6.58162 | 3.31822 | 64 ft | 13 kts | 67° |
| 2026-05-05 08:43 | 6.58201 | 3.31913 | 85 ft | 15 kts | 66° |
| 2026-05-05 08:44 | 6.58232 | 3.31993 | 87 ft | 7 kts | 81° |
| 2026-05-05 08:44 | 6.58201 | 3.32026 | 87 ft | 7 kts | 156° |
| 2026-05-05 08:44 | 6.58117 | 3.32060 | 89 ft | 13 kts | 158° |
| 2026-05-05 08:44 | 6.58037 | 3.32093 | 90 ft | 10 kts | 157° |
| 2026-05-05 08:45 | 6.57986 | 3.32127 | 93 ft | 8 kts | 124° |
| 2026-05-05 08:45 | 6.57971 | 3.32160 | 93 ft | 2 kts | 112° |
| 2026-05-05 08:45 | 6.57966 | 3.32172 | 96 ft | 3 kts | 112° |
| 2026-05-05 08:45 | 6.57960 | 3.32187 | 96 ft | 0 kts | 112° |